Gooselake, Iowa
Current Conditions -  °F | °C
As of 3:35 PM on Saturday 20 Dec 2014 (Local Time) from KCWI Reporting Station
Overcast Overcast  
Wind Chill: 27°   Ceiling: 1900
Heat Index: 34°   Visibility: 7mi
Dew Point: 25°   Wind: 8mph
Humidity: 70%   Direction: 140°SE
Pressure: 30.23"   Gusts: NA
Location:  41.9929°N, 90.386°W
Report Text: KCWI 202135Z AUTO 14007KT 7SM BKN019 OVC035 01/M04 A3023 RMK AO1
Loading
Personal Weather Stations






























Interactive Weather Map New forecast layout! Learn more

10-Day Weather Forecast

Advertisements
Track Severe Weather on mobile